createdAt,value
2019-05-15T00:00:58.715Z,9.70
2019-05-15T00:03:25.664Z,11.37
2019-05-15T00:05:52.865Z,10.00
2019-05-15T00:08:20.045Z,10.20
2019-05-15T00:10:48.464Z,10.53
2019-05-15T00:13:18.336Z,10.13
2019-05-15T00:15:44.966Z,10.60
2019-05-15T00:18:12.160Z,10.10
2019-05-15T00:20:39.742Z,10.60
2019-05-15T00:23:08.534Z,9.10
2019-05-15T00:25:35.906Z,10.03
2019-05-15T00:28:03.100Z,10.10
2019-05-15T00:30:30.276Z,8.87
2019-05-15T00:32:58.860Z,9.73
2019-05-15T00:35:28.578Z,9.50
2019-05-15T00:37:55.280Z,9.20
2019-05-15T00:40:22.492Z,9.00
2019-05-15T00:42:49.700Z,8.67
2019-05-15T00:45:18.642Z,8.80
2019-05-15T00:47:48.485Z,9.10
2019-05-15T00:50:15.252Z,9.43
2019-05-15T00:52:42.552Z,8.63
2019-05-15T00:55:10.804Z,8.50
2019-05-15T00:57:39.226Z,8.67
2019-05-15T01:00:08.228Z,8.93
2019-05-15T01:02:35.684Z,9.30
2019-05-15T01:05:03.294Z,8.90
2019-05-15T01:07:31.532Z,9.20
2019-05-15T01:09:59.238Z,8.70
2019-05-15T01:12:26.436Z,10.47
2019-05-15T01:14:53.641Z,8.63
2019-05-15T01:17:21.028Z,8.60
2019-05-15T01:19:48.716Z,8.90
2019-05-15T01:22:15.904Z,8.73
2019-05-15T01:24:43.988Z,8.80
2019-05-15T01:27:11.688Z,8.83
2019-05-15T01:29:44.699Z,9.00
2019-05-15T01:32:08.412Z,9.40
2019-05-15T01:34:38.431Z,9.40
2019-05-15T01:37:08.396Z,9.53
2019-05-15T01:39:34.883Z,7.47
2019-05-15T01:42:02.493Z,8.00
2019-05-15T01:44:29.699Z,7.80
2019-05-15T01:46:58.982Z,8.40
2019-05-15T01:49:27.899Z,7.73
2019-05-15T01:51:55.064Z,8.10
2019-05-15T01:54:22.556Z,7.33
2019-05-15T01:56:49.846Z,8.00
2019-05-15T01:59:18.928Z,8.23
2019-05-15T02:01:48.447Z,7.40
2019-05-15T02:04:15.256Z,7.67
2019-05-15T02:06:42.451Z,7.80
2019-05-15T02:09:09.846Z,7.13
2019-05-15T02:11:38.283Z,7.47
2019-05-15T02:14:08.346Z,6.83
2019-05-15T02:16:35.657Z,6.90
2019-05-15T02:19:02.864Z,6.13
2019-05-15T02:21:30.044Z,6.53
2019-05-15T02:23:58.760Z,7.00
2019-05-15T02:26:28.147Z,6.60
2019-05-15T02:28:55.212Z,7.33
2019-05-15T02:31:22.411Z,6.97
2019-05-15T02:33:49.915Z,7.33
2019-05-15T02:36:20.620Z,7.60
2019-05-15T02:38:48.708Z,8.50
2019-05-15T02:41:19.282Z,7.20
2019-05-15T02:43:44.990Z,8.40
2019-05-15T02:46:12.173Z,8.73
2019-05-15T02:48:40.911Z,9.37
2019-05-15T02:51:09.719Z,8.77
2019-05-15T02:53:39.590Z,8.20
2019-05-15T02:56:09.346Z,9.40
2019-05-15T02:58:36.084Z,11.17
2019-05-15T03:01:03.262Z,9.13
2019-05-15T03:03:30.441Z,10.07
2019-05-15T03:06:00.192Z,9.53
2019-05-15T03:08:29.534Z,10.10
2019-05-15T03:10:58.967Z,11.13
2019-05-15T03:13:25.133Z,9.83
2019-05-15T03:15:52.417Z,9.57
2019-05-15T03:18:19.737Z,10.00
2019-05-15T03:20:50.177Z,10.17
2019-05-15T03:23:19.514Z,10.37
2019-05-15T03:25:45.205Z,9.43
2019-05-15T03:28:12.412Z,9.80
2019-05-15T03:31:06.675Z,8.43
2019-05-15T03:33:17.432Z,10.20
2019-05-15T03:35:42.718Z,8.90
2019-05-15T03:38:09.298Z,9.53
2019-05-15T03:40:39.368Z,8.97
2019-05-15T03:43:05.228Z,9.73
2019-05-15T03:45:32.425Z,8.87
2019-05-15T03:47:59.744Z,8.70
2019-05-15T03:50:29.014Z,10.07
2019-05-15T03:52:58.656Z,9.30
2019-05-15T03:55:25.172Z,8.60
2019-05-15T03:57:52.372Z,8.53
2019-05-15T04:00:19.812Z,7.80
2019-05-15T04:02:48.835Z,8.20
2019-05-15T04:05:19.667Z,9.57
2019-05-15T04:07:45.645Z,7.63
2019-05-15T04:10:13.238Z,8.37
2019-05-15T04:12:40.958Z,7.53
2019-05-15T04:15:10.026Z,7.70
2019-05-15T04:17:40.094Z,6.60
2019-05-15T04:20:09.827Z,8.07
2019-05-15T04:22:39.968Z,8.20
2019-05-15T04:25:09.782Z,7.60
2019-05-15T04:27:39.113Z,8.27
2019-05-15T04:30:10.151Z,6.40
2019-05-15T04:32:35.844Z,7.00
2019-05-15T04:35:03.792Z,6.90
2019-05-15T04:37:31.170Z,7.37
2019-05-15T04:39:59.790Z,7.27
2019-05-15T04:42:29.898Z,5.90
2019-05-15T04:44:56.270Z,6.57
2019-05-15T04:47:23.557Z,6.50
2019-05-15T04:49:50.809Z,7.20
2019-05-15T04:52:19.481Z,6.33
2019-05-15T04:54:49.314Z,5.60
2019-05-15T04:57:19.162Z,5.97
2019-05-15T04:59:45.317Z,6.63
2019-05-15T05:02:24.204Z,6.50
2019-05-15T05:04:41.641Z,6.23
2019-05-15T05:07:09.714Z,6.00
2019-05-15T05:09:38.972Z,5.70
2019-05-15T05:12:08.410Z,5.43
2019-05-15T05:14:35.286Z,6.03
2019-05-15T05:17:02.477Z,5.87
2019-05-15T05:19:29.703Z,6.57
2019-05-15T05:21:58.531Z,6.80
2019-05-15T05:24:28.039Z,7.30
2019-05-15T05:26:55.276Z,7.07
2019-05-15T05:29:22.516Z,7.03
2019-05-15T05:31:49.731Z,7.60
2019-05-15T05:34:19.204Z,6.80
2019-05-15T05:36:47.987Z,7.63
2019-05-15T05:39:19.222Z,7.10
2019-05-15T05:41:45.824Z,7.40
2019-05-15T05:44:13.040Z,6.67
2019-05-15T05:46:40.422Z,7.50
2019-05-15T05:49:08.107Z,7.83
2019-05-15T05:51:35.632Z,8.00
2019-05-15T05:54:02.845Z,6.60
2019-05-15T05:56:30.012Z,7.03
2019-05-15T05:58:58.608Z,8.03
2019-05-15T06:01:28.240Z,6.77
2019-05-15T06:03:55.504Z,7.30
2019-05-15T06:06:22.820Z,6.77
2019-05-15T06:08:50.414Z,6.30
2019-05-15T06:11:18.451Z,6.00
2019-05-15T06:13:45.841Z,7.13
2019-05-15T06:16:13.072Z,6.07
2019-05-15T06:18:40.393Z,7.10
2019-05-15T06:21:09.100Z,6.50
2019-05-15T06:23:43.155Z,6.20
2019-05-15T06:26:09.087Z,6.30
2019-05-15T06:28:34.965Z,7.37
2019-05-15T06:31:02.201Z,6.33
2019-05-15T06:33:29.425Z,7.70
2019-05-15T06:35:59.069Z,6.67
2019-05-15T06:38:30.624Z,6.53
2019-05-15T06:40:54.878Z,5.13
2019-05-15T06:43:22.144Z,5.17
2019-05-15T06:45:49.442Z,5.07
2019-05-15T06:48:18.395Z,5.70
2019-05-15T06:50:48.596Z,6.03
2019-05-15T06:53:15.198Z,4.83
2019-05-15T06:55:42.584Z,4.20
2019-05-15T06:58:09.788Z,4.70
2019-05-15T07:00:39.121Z,4.30
2019-05-15T07:03:18.112Z,4.10
2019-05-15T07:05:35.300Z,3.87
2019-05-15T07:08:03.190Z,3.37
2019-05-15T07:10:30.488Z,3.27
2019-05-15T07:12:58.482Z,3.10
2019-05-15T07:15:27.844Z,4.03
2019-05-15T07:17:57.859Z,3.27
2019-05-15T07:20:24.589Z,2.90
2019-05-15T07:22:52.133Z,3.27
2019-05-15T07:25:19.505Z,3.53
2019-05-15T07:27:47.853Z,2.87
2019-05-15T07:30:15.748Z,3.80
2019-05-15T07:32:42.964Z,3.00
2019-05-15T07:35:10.762Z,3.77
2019-05-15T07:37:38.835Z,3.40
2019-05-15T07:40:08.399Z,4.30
2019-05-15T07:42:38.335Z,4.30
2019-05-15T07:45:08.272Z,9.63
2019-05-15T07:47:35.385Z,4.10
2019-05-15T07:50:04.040Z,4.67
2019-05-15T07:52:31.382Z,4.57
2019-05-15T07:54:58.625Z,4.87
2019-05-15T07:57:25.959Z,6.07
2019-05-15T07:59:53.376Z,5.30
2019-05-15T08:02:20.649Z,5.47
2019-05-15T08:04:48.250Z,5.20
2019-05-15T08:07:15.708Z,6.40
2019-05-15T08:09:42.924Z,6.00
2019-05-15T08:12:10.121Z,6.23
2019-05-15T08:14:38.743Z,6.77
2019-05-15T08:17:08.520Z,6.70
2019-05-15T08:19:38.199Z,6.80
2019-05-15T08:22:04.545Z,7.10
2019-05-15T08:24:31.945Z,7.43
2019-05-15T08:26:59.207Z,7.47
2019-05-15T08:29:28.658Z,9.13
2019-05-15T08:31:55.495Z,8.37
2019-05-15T08:34:22.700Z,7.20
2019-05-15T08:36:49.930Z,7.17
2019-05-15T08:39:19.078Z,9.20
2019-05-15T08:41:48.294Z,9.60
2019-05-15T08:44:15.399Z,7.90
2019-05-15T08:46:44.300Z,8.47
2019-05-15T08:49:11.720Z,9.83
2019-05-15T08:51:38.945Z,9.00
2019-05-15T08:54:08.355Z,9.10
2019-05-15T08:56:35.547Z,9.53
2019-05-15T08:59:02.872Z,9.30
2019-05-15T09:01:30.084Z,9.10
2019-05-15T09:03:58.165Z,10.00
2019-05-15T09:06:25.724Z,8.67
2019-05-15T09:08:52.934Z,7.93
2019-05-15T09:11:20.164Z,8.60
2019-05-15T09:13:52.714Z,8.77
2019-05-15T09:16:18.527Z,8.50
2019-05-15T09:18:48.349Z,8.50
2019-05-15T09:21:15.289Z,7.40
2019-05-15T09:23:42.637Z,8.93
2019-05-15T09:26:09.849Z,8.87
2019-05-15T09:28:39.013Z,9.20
2019-05-15T09:31:08.375Z,9.47
2019-05-15T09:33:38.416Z,8.00
2019-05-15T09:36:04.889Z,8.57
2019-05-15T09:38:32.197Z,8.50
2019-05-15T09:40:59.597Z,10.03
2019-05-15T09:43:28.546Z,9.67
2019-05-15T09:45:58.102Z,10.00
2019-05-15T09:48:25.384Z,8.40
2019-05-15T09:50:52.726Z,9.00
2019-05-15T09:53:20.045Z,8.33
2019-05-15T09:55:49.431Z,8.43
2019-05-15T09:58:20.236Z,9.40
2019-05-15T10:00:50.865Z,8.50
2019-05-15T10:03:15.289Z,7.40
2019-05-15T10:05:42.553Z,8.47
2019-05-15T10:08:10.280Z,8.10
2019-05-15T10:10:38.065Z,8.17
2019-05-15T10:13:05.651Z,7.90
2019-05-15T10:15:32.886Z,6.73
2019-05-15T10:18:00.312Z,6.23
2019-05-15T10:20:29.102Z,6.53
2019-05-15T10:22:59.037Z,5.37
2019-05-15T10:25:28.171Z,5.30
2019-05-15T10:27:57.851Z,6.00
2019-05-15T10:30:24.694Z,5.97
2019-05-15T10:32:51.901Z,5.63
2019-05-15T10:35:28.286Z,5.57
2019-05-15T10:37:48.922Z,6.77
2019-05-15T10:40:20.149Z,5.60
2019-05-15T10:42:45.990Z,6.17
2019-05-15T10:45:14.108Z,5.93
2019-05-15T10:47:41.304Z,6.00
2019-05-15T10:50:09.098Z,4.90
2019-05-15T10:52:38.213Z,6.60
2019-05-15T10:55:05.808Z,4.60
2019-05-15T10:57:33.037Z,5.00
2019-05-15T11:00:00.339Z,5.93
2019-05-15T11:02:28.991Z,5.50
2019-05-15T11:04:57.886Z,5.23
2019-05-15T11:07:25.333Z,5.33
2019-05-15T11:09:52.536Z,5.50
2019-05-15T11:12:19.879Z,4.70
2019-05-15T11:14:47.105Z,4.43
2019-05-15T11:17:14.305Z,4.60
2019-05-15T11:19:41.612Z,5.10
2019-05-15T11:22:09.164Z,4.27
2019-05-15T11:24:38.506Z,5.10
2019-05-15T11:27:09.724Z,3.90
2019-05-15T11:29:34.840Z,4.80
2019-05-15T11:32:02.077Z,5.53
2019-05-15T11:34:29.283Z,4.60
2019-05-15T11:36:59.116Z,4.70
2019-05-15T11:39:25.693Z,4.80
2019-05-15T11:41:52.978Z,4.13
2019-05-15T11:44:20.208Z,4.63
2019-05-15T11:46:49.609Z,4.40
2019-05-15T11:49:18.242Z,4.23
2019-05-15T11:51:45.612Z,5.30
2019-05-15T11:54:12.827Z,4.60
2019-05-15T11:56:40.021Z,4.40
2019-05-15T11:59:08.515Z,4.40
2019-05-15T12:01:38.144Z,4.20
2019-05-15T12:04:05.412Z,5.10
2019-05-15T12:06:32.697Z,4.17
2019-05-15T12:09:00.064Z,4.70
2019-05-15T12:11:36.425Z,4.67
2019-05-15T12:13:56.420Z,4.40
2019-05-15T12:16:23.631Z,4.90
2019-05-15T12:18:50.839Z,4.83
2019-05-15T12:21:19.960Z,6.40
2019-05-15T12:23:48.788Z,5.10
2019-05-15T12:26:16.292Z,5.00
2019-05-15T12:28:43.610Z,3.90
2019-05-15T12:31:10.918Z,4.87
2019-05-15T12:33:38.610Z,4.27
2019-05-15T12:36:10.206Z,4.27
2019-05-15T12:38:35.625Z,3.53
2019-05-15T13:00:57.727Z,4.60
2019-05-15T13:03:25.017Z,3.80
2019-05-15T13:05:52.233Z,5.27
2019-05-15T13:08:19.573Z,4.90
2019-05-15T13:10:48.774Z,5.00
2019-05-15T13:13:16.011Z,5.00
2019-05-15T13:15:43.219Z,6.10
2019-05-15T13:18:13.841Z,4.47
2019-05-15T13:20:39.716Z,4.50
2019-05-15T13:23:07.212Z,5.03
2019-05-15T13:25:34.688Z,4.53
2019-05-15T13:28:01.973Z,4.07
2019-05-15T13:30:30.319Z,4.37
2019-05-15T13:32:58.766Z,4.70
2019-05-15T13:35:28.342Z,5.00
2019-05-15T13:37:55.239Z,5.80
2019-05-15T13:40:34.234Z,5.60
2019-05-15T13:42:51.896Z,6.00
2019-05-15T13:45:19.481Z,6.43
2019-05-15T13:47:46.794Z,6.07
2019-05-15T13:50:14.292Z,5.70
2019-05-15T13:52:41.536Z,5.77
2019-05-15T13:55:08.995Z,5.73
2019-05-15T13:57:38.285Z,5.03
2019-05-15T14:00:08.666Z,5.00
2019-05-15T14:02:38.408Z,5.13
2019-05-15T14:05:08.993Z,5.70
2019-05-15T14:07:47.959Z,6.60
2019-05-15T14:10:09.234Z,5.03
2019-05-15T14:12:35.748Z,5.90
2019-05-15T14:15:03.479Z,5.50
2019-05-15T14:17:30.675Z,6.57
2019-05-15T14:19:58.038Z,5.70
2019-05-15T14:22:25.372Z,5.60
2019-05-15T14:24:52.568Z,5.60
2019-05-15T14:27:19.773Z,11.80
2019-05-15T14:29:48.879Z,5.10
2019-05-15T14:32:22.738Z,4.87
2019-05-15T14:34:47.733Z,6.40
2019-05-15T14:37:14.372Z,5.67
2019-05-15T14:39:41.555Z,5.77
2019-05-15T14:42:09.211Z,4.40
2019-05-15T14:44:38.695Z,4.80
2019-05-15T14:47:05.668Z,5.70
2019-05-15T14:49:35.046Z,4.00
2019-05-15T14:52:08.399Z,4.70
2019-05-15T14:54:31.084Z,4.60
2019-05-15T14:56:58.292Z,4.80
2019-05-15T14:59:25.517Z,4.77
2019-05-15T15:01:52.713Z,4.03
2019-05-15T15:04:20.189Z,3.73
2019-05-15T15:06:48.680Z,3.77
2019-05-15T15:09:16.213Z,4.00
2019-05-15T15:11:43.412Z,3.60
2019-05-15T15:14:10.605Z,4.23
2019-05-15T15:16:38.520Z,4.43
2019-05-15T15:19:05.893Z,3.63
2019-05-15T15:21:33.385Z,4.07
2019-05-15T15:24:00.565Z,3.10
2019-05-15T15:26:27.785Z,3.87
2019-05-15T15:28:54.969Z,4.13
2019-05-15T15:31:22.206Z,4.83
2019-05-15T15:33:49.393Z,3.40
2019-05-15T15:36:16.597Z,3.40
2019-05-15T15:38:44.271Z,4.40
2019-05-15T15:41:11.596Z,3.90
2019-05-15T15:43:38.880Z,3.87
2019-05-15T15:46:08.435Z,3.60
2019-05-15T15:48:35.382Z,2.80
2019-05-15T15:51:02.643Z,2.90
2019-05-15T15:53:29.909Z,3.20
2019-05-15T15:55:57.086Z,3.83
2019-05-15T15:58:24.308Z,3.77
2019-05-15T16:00:51.520Z,3.70
2019-05-15T16:03:19.360Z,3.10
2019-05-15T16:05:48.812Z,3.17
2019-05-15T16:08:15.884Z,3.30
2019-05-15T16:10:43.068Z,4.03
2019-05-15T16:13:10.253Z,3.90
2019-05-15T16:15:38.499Z,3.20
2019-05-15T16:18:08.631Z,3.27
2019-05-15T16:20:39.291Z,3.30
2019-05-15T16:23:08.200Z,2.90
2019-05-15T16:25:35.112Z,3.27
2019-05-15T16:28:02.300Z,3.80
2019-05-15T16:30:29.817Z,3.30
2019-05-15T16:32:58.489Z,3.77
2019-05-15T16:35:25.971Z,3.40
2019-05-15T16:37:53.184Z,2.77
2019-05-15T16:40:20.413Z,3.07
2019-05-15T16:42:48.838Z,3.57
2019-05-15T16:45:16.776Z,2.80
2019-05-15T16:47:43.980Z,3.67
2019-05-15T16:50:11.604Z,3.73
2019-05-15T16:52:39.230Z,4.90
2019-05-15T16:55:09.201Z,3.83
2019-05-15T16:57:38.636Z,4.43
2019-05-15T17:00:09.526Z,3.80
2019-05-15T17:02:39.143Z,3.83
2019-05-15T17:05:07.464Z,3.67
2019-05-15T17:07:34.683Z,3.70
2019-05-15T17:10:02.011Z,3.47
2019-05-15T17:12:29.204Z,4.17
2019-05-15T17:14:58.256Z,3.43
2019-05-15T17:17:25.490Z,4.00
2019-05-15T17:19:52.697Z,3.40
2019-05-15T17:22:19.899Z,3.60
2019-05-15T17:24:48.862Z,3.83
2019-05-15T17:27:18.224Z,3.30
2019-05-15T17:29:45.401Z,2.90
2019-05-15T17:32:12.584Z,3.90
2019-05-15T17:34:39.811Z,3.43
2019-05-15T17:37:07.121Z,3.57
2019-05-15T17:39:37.865Z,2.90
2019-05-15T17:42:03.425Z,3.63
2019-05-15T17:44:30.656Z,3.40
2019-05-15T17:46:58.467Z,2.77
2019-05-15T17:49:27.902Z,4.50
2019-05-15T17:51:54.953Z,3.43
2019-05-15T17:54:22.167Z,3.30
2019-05-15T17:56:49.464Z,3.23
2019-05-15T17:59:17.790Z,3.27
2019-05-15T18:01:45.162Z,3.20
2019-05-15T18:04:12.264Z,4.50
2019-05-15T18:06:40.032Z,3.70
2019-05-15T18:09:08.753Z,3.90
2019-05-15T18:11:38.199Z,3.37
2019-05-15T18:14:05.702Z,3.50
2019-05-15T18:16:33.056Z,3.20
2019-05-15T18:19:00.661Z,4.10
2019-05-15T18:21:29.103Z,3.87
2019-05-15T18:23:58.498Z,3.73
2019-05-15T18:26:25.467Z,3.23
2019-05-15T18:28:53.409Z,3.93
2019-05-15T18:31:20.646Z,4.00
2019-05-15T18:33:53.717Z,4.57
2019-05-15T18:36:16.971Z,4.83
2019-05-15T18:38:44.284Z,3.87
2019-05-15T18:41:11.484Z,4.10
2019-05-15T18:43:38.724Z,4.20
2019-05-15T18:46:05.940Z,4.00
2019-05-15T18:48:33.610Z,3.57
2019-05-15T18:51:01.277Z,3.60
2019-05-15T18:53:28.809Z,4.50
2019-05-15T18:55:58.364Z,5.67
2019-05-15T18:58:26.124Z,4.30
2019-05-15T19:00:53.921Z,5.20
2019-05-15T19:03:22.842Z,4.80
2019-05-15T19:05:50.495Z,4.60
2019-05-15T19:08:18.785Z,5.27
2019-05-15T19:10:47.740Z,4.87
2019-05-15T19:13:15.573Z,5.20
2019-05-15T19:15:43.073Z,5.37
2019-05-15T19:18:10.323Z,4.67
2019-05-15T19:20:38.919Z,5.67
2019-05-15T19:23:08.025Z,5.67
2019-05-15T19:25:35.552Z,5.57
2019-05-15T19:28:02.777Z,5.83
2019-05-15T19:30:30.038Z,4.77
2019-05-15T19:32:58.512Z,4.50
2019-05-15T19:35:28.034Z,5.23
2019-05-15T19:37:58.210Z,5.20
2019-05-15T19:40:24.626Z,4.50
2019-05-15T19:42:51.948Z,4.83
2019-05-15T19:45:19.241Z,4.83
2019-05-15T19:47:47.818Z,4.93
2019-05-15T19:50:17.921Z,5.00
2019-05-15T19:52:45.007Z,5.20
2019-05-15T19:55:12.676Z,5.07
2019-05-15T19:57:40.133Z,5.00
2019-05-15T20:00:08.603Z,5.57
2019-05-15T20:02:38.062Z,5.30
2019-05-15T20:05:05.549Z,6.17
2019-05-15T20:07:32.784Z,5.20
2019-05-15T20:10:00.384Z,5.20
2019-05-15T20:12:28.022Z,5.10
2019-05-15T20:14:55.436Z,5.30
2019-05-15T20:17:22.648Z,5.50
2019-05-15T20:19:49.850Z,5.23
2019-05-15T20:22:18.853Z,4.80
2019-05-15T20:24:46.188Z,4.57
2019-05-15T20:27:13.512Z,4.30
2019-05-15T20:29:41.002Z,6.53
2019-05-15T20:32:08.333Z,6.20
2019-05-15T20:34:37.810Z,5.40
2019-05-15T20:37:05.048Z,5.50
2019-05-15T20:39:32.316Z,5.90
2019-05-15T20:41:59.521Z,5.60
2019-05-15T20:44:26.800Z,5.97
2019-05-15T20:46:54.136Z,5.40
2019-05-15T20:49:21.409Z,7.33
2019-05-15T20:51:48.989Z,6.63
2019-05-15T20:54:16.529Z,6.10
2019-05-15T20:56:43.925Z,6.40
2019-05-15T20:59:11.113Z,7.00
2019-05-15T21:01:38.310Z,6.10
2019-05-15T21:04:18.707Z,5.17
2019-05-15T21:06:34.872Z,6.90
2019-05-15T21:09:02.165Z,6.50
2019-05-15T21:11:29.843Z,6.30
2019-05-15T21:13:58.154Z,5.47
2019-05-15T21:16:27.812Z,6.30
2019-05-15T21:18:54.741Z,5.40
2019-05-15T21:21:22.053Z,5.53
2019-05-15T21:23:49.305Z,5.20
2019-05-15T21:26:18.769Z,5.80
2019-05-15T21:28:45.962Z,6.30
2019-05-15T21:31:14.804Z,5.47
2019-05-15T21:33:42.033Z,5.17
2019-05-15T21:36:09.430Z,5.60
2019-05-15T21:38:38.715Z,6.37
2019-05-15T21:41:07.851Z,6.07
2019-05-15T21:43:34.864Z,6.33
2019-05-15T21:46:02.081Z,5.60
2019-05-15T21:48:30.804Z,6.03
2019-05-15T21:50:58.011Z,6.60
2019-05-15T21:53:25.469Z,5.80
2019-05-15T21:55:52.657Z,6.50
2019-05-15T21:58:19.860Z,6.70
2019-05-15T22:00:51.549Z,6.30
2019-05-15T22:03:20.748Z,6.20
2019-05-15T22:05:48.786Z,6.40
2019-05-15T22:08:18.336Z,5.40
2019-05-15T22:10:48.050Z,6.03
2019-05-15T22:13:15.085Z,5.93
2019-05-15T22:15:42.624Z,5.63
2019-05-15T22:18:11.481Z,5.87
2019-05-15T22:20:39.139Z,6.03
2019-05-15T22:23:08.203Z,5.97
2019-05-15T22:25:35.620Z,6.03
2019-05-15T22:28:02.936Z,6.73
2019-05-15T22:30:30.490Z,6.20
2019-05-15T22:32:58.744Z,6.10
2019-05-15T22:35:29.100Z,6.27
2019-05-15T22:37:55.441Z,6.50
2019-05-15T22:40:22.640Z,6.13
2019-05-15T22:42:49.868Z,5.90
2019-05-15T22:45:18.642Z,6.30
2019-05-15T22:47:48.197Z,6.57
2019-05-15T22:50:18.577Z,6.63
2019-05-15T22:52:45.249Z,6.80
2019-05-15T22:55:12.636Z,6.80
2019-05-15T22:57:39.857Z,6.77
2019-05-15T23:00:08.743Z,5.70
2019-05-15T23:02:36.268Z,4.50
2019-05-15T23:05:04.100Z,5.43
2019-05-15T23:07:31.428Z,5.70
2019-05-15T23:09:58.697Z,5.90
2019-05-15T23:12:25.904Z,6.23
2019-05-15T23:14:53.156Z,6.90
2019-05-15T23:17:20.806Z,6.27
2019-05-15T23:19:48.599Z,6.90
2019-05-15T23:22:16.110Z,5.97
2019-05-15T23:24:43.334Z,6.63
2019-05-15T23:27:10.541Z,5.70
2019-05-15T23:29:38.470Z,6.10
2019-05-15T23:32:07.837Z,5.80
2019-05-15T23:34:35.325Z,6.20
2019-05-15T23:37:02.520Z,5.83
2019-05-15T23:39:29.751Z,5.53
2019-05-15T23:41:58.466Z,5.90
2019-05-15T23:44:27.660Z,5.60
2019-05-15T23:46:54.972Z,6.57
2019-05-15T23:49:22.164Z,5.93
2019-05-15T23:51:49.493Z,6.03
2019-05-15T23:54:18.536Z,5.53
2019-05-15T23:56:45.933Z,5.40
2019-05-15T23:59:13.183Z,5.50
